Pagrindinis puslapis
METAR-TAF:

METAR-TAF

Oro uostai :

Niamėjus, Nigeris

platuma: 13-29N, ilguma: 002-10E, Aukštis: 223 m

Dabartinis oras

Ataskaita buvo paskelbta 46 minutes, ne 13:00 UTC
Vėjas 6 kt iš Šiaurės Rytų su gūsio iki 16 kt, svyruoja nuo Šiaurės ir Rytų
Temperatūra 37°C
Drėgmė 10%
Slėgis 1010 hPa
Matomumas 10 km arba daugiau
nėra debesų žemiau 1500 m ir nėra kamuolinių lietaus debesų

METAR: DRRN 291300Z 05006G16KT 360V080 CAVOK 37/01 Q1010 NOSIG

Laikas: 14:46 (13:46 UTC)

Prognozė

Ataskaita buvo paskelbta 2 valandos ir 46 minutes, ne 11:00 UTC
Prognozė galioja nuo 29 metu 12 UTC su 30 metu 18 UTC
Vėjas 5 kt iš Šiaurės
Matomumas: 8000 m
Laikinai
nuo 29 metu 18 UTC su 29 metu 20 UTC
Matomumas: 4000 m
dulkės
Laikinai
nuo 30 metu 06 UTC su 30 metu 09 UTC
Matomumas: 4000 m
dulkės

TAF: DRRN 291100Z 2912/3018 36005KT 8000 NSC TEMPO 2918/2920 4000 DU TEMPO 3006/3009 4000 DU

Orai ataskaitas ir orų prognozės (METAR, TAF).

turimą stotys yra geltonos ir raudonos taškus žemėlapyje.

Perkelti pele per norėdami pamatyti stoties vardą.

Tada spustelėkite, norėdami matyti oro stebėjimo ir prognozės.

Norėdami pakeisti žemėlapį: spustelėkite ant žalios mygtukų su juodo kryžiaus žemyn,; žalią mygtuką su brūkšneliu, jei norite nutolinti; arba žalių rodyklių gretimoms žemėlapius.


METAR-TAF: